createdAt,value
2018-03-06T00:00:01.207Z,100015.14
2018-03-06T00:02:30.318Z,100008.11
2018-03-06T00:04:59.832Z,100013.55
2018-03-06T00:07:29.101Z,100009.02
2018-03-06T00:09:58.493Z,100014.01
2018-03-06T00:12:27.855Z,100009.89
2018-03-06T00:14:57.037Z,100011.62
2018-03-06T00:17:26.226Z,100009.97
2018-03-06T00:19:56.194Z,100003.28
2018-03-06T00:22:25.312Z,100001.20
2018-03-06T00:24:54.428Z,99998.33
2018-03-06T00:27:23.789Z,99998.75
2018-03-06T00:29:52.913Z,99993.80
2018-03-06T00:32:22.405Z,99997.61
2018-03-06T00:34:51.511Z,99996.41
2018-03-06T00:37:20.610Z,99996.84
2018-03-06T00:39:49.709Z,99998.09
2018-03-06T00:42:18.816Z,99998.96
2018-03-06T00:44:47.923Z,99990.25
2018-03-06T00:47:17.195Z,99988.20
2018-03-06T00:49:47.383Z,99988.20
2018-03-06T00:52:18.338Z,99989.03
2018-03-06T00:54:48.133Z,99990.69
2018-03-06T00:57:17.846Z,99990.73
2018-03-06T00:59:47.834Z,99990.77
2018-03-06T01:02:16.931Z,99987.92
2018-03-06T01:04:46.149Z,99977.58
2018-03-06T01:07:15.950Z,99983.86
2018-03-06T01:09:45.215Z,99982.65
2018-03-06T01:12:14.408Z,99980.99
2018-03-06T01:14:43.618Z,99981.85
2018-03-06T01:17:13.174Z,99976.88
2018-03-06T01:19:43.031Z,99979.78
2018-03-06T01:22:12.773Z,99978.56
2018-03-06T01:24:43.148Z,99979.36
2018-03-06T01:27:12.631Z,99976.45
2018-03-06T01:29:43.500Z,99977.31
2018-03-06T01:32:13.675Z,99977.77
2018-03-06T01:34:42.780Z,99979.45
2018-03-06T01:37:11.898Z,99974.06
2018-03-06T01:39:40.998Z,99972.81
2018-03-06T01:42:10.907Z,99972.42
2018-03-06T01:44:41.023Z,99971.63
2018-03-06T01:47:10.739Z,99971.21
2018-03-06T01:49:40.604Z,99977.02
2018-03-06T01:52:09.763Z,99973.70
2018-03-06T01:54:38.863Z,99972.88
2018-03-06T01:57:08.859Z,99966.65
2018-03-06T01:59:39.423Z,99970.86
2018-03-06T02:02:09.181Z,99972.95
2018-03-06T02:04:38.422Z,99968.39
2018-03-06T02:07:10.478Z,99965.48
2018-03-06T02:09:41.081Z,99965.08
2018-03-06T02:12:10.699Z,99972.16
2018-03-06T02:14:39.860Z,99966.41
2018-03-06T02:17:08.898Z,99968.47
2018-03-06T02:19:39.205Z,99966.01
2018-03-06T02:22:10.517Z,99966.06
2018-03-06T02:24:41.716Z,99964.43
2018-03-06T02:27:10.811Z,99966.11
2018-03-06T02:29:39.949Z,99965.69
2018-03-06T02:32:10.156Z,99961.16
2018-03-06T02:34:40.428Z,99959.47
2018-03-06T02:37:09.527Z,99959.92
2018-03-06T02:39:39.316Z,99964.06
2018-03-06T02:42:10.126Z,99960.36
2018-03-06T02:44:41.894Z,99959.11
2018-03-06T02:47:11.037Z,99962.42
2018-03-06T02:49:41.058Z,99959.55
2018-03-06T02:52:11.413Z,99963.72
2018-03-06T02:54:40.646Z,99952.13
2018-03-06T02:57:09.734Z,99956.27
2018-03-06T02:59:38.920Z,99955.03
2018-03-06T03:02:08.023Z,99952.16
2018-03-06T03:04:37.769Z,99945.98
2018-03-06T03:07:08.617Z,99941.88
2018-03-06T03:09:38.097Z,99946.44
2018-03-06T03:12:07.527Z,99943.10
2018-03-06T03:14:37.076Z,99943.52
2018-03-06T03:17:06.175Z,99940.20
2018-03-06T03:19:36.410Z,99939.37
2018-03-06T03:22:06.692Z,99939.39
2018-03-06T03:24:36.650Z,99936.10
2018-03-06T03:27:06.061Z,99938.58
2018-03-06T03:29:36.740Z,99930.73
2018-03-06T03:32:06.687Z,99920.81
2018-03-06T03:34:36.286Z,99922.88
2018-03-06T03:37:05.759Z,99917.50
2018-03-06T03:39:34.987Z,99916.66
2018-03-06T03:42:04.146Z,99911.24
2018-03-06T03:44:33.253Z,99910.85
2018-03-06T03:47:02.370Z,99912.94
2018-03-06T03:49:32.297Z,99915.89
2018-03-06T03:52:01.971Z,99914.66
2018-03-06T03:54:31.101Z,99905.12
2018-03-06T03:57:00.503Z,99910.09
2018-03-06T03:59:29.618Z,99911.76
2018-03-06T04:01:59.778Z,99917.55
2018-03-06T04:04:28.990Z,99910.94
2018-03-06T04:06:58.426Z,99909.72
2018-03-06T04:09:27.889Z,99907.65
2018-03-06T04:11:57.010Z,99908.06
2018-03-06T04:14:26.113Z,99907.66
2018-03-06T04:16:56.230Z,99913.02
2018-03-06T04:19:26.179Z,99909.70
2018-03-06T04:21:56.338Z,99906.43
2018-03-06T04:24:25.601Z,99902.30
2018-03-06T04:26:55.896Z,99899.03
2018-03-06T04:29:25.970Z,99901.55
2018-03-06T04:31:56.283Z,99905.70
2018-03-06T04:34:25.582Z,99908.62
2018-03-06T04:36:54.671Z,99899.94
2018-03-06T04:39:24.102Z,99894.14
2018-03-06T04:41:53.398Z,99896.61
2018-03-06T04:44:22.489Z,99890.38
2018-03-06T04:46:53.010Z,99894.51
2018-03-06T04:49:22.299Z,99889.13
2018-03-06T04:51:51.474Z,99884.19
2018-03-06T04:54:20.773Z,99882.58
2018-03-06T04:56:51.087Z,99882.59
2018-03-06T04:59:20.856Z,99887.58
2018-03-06T05:01:50.601Z,99889.66
2018-03-06T05:04:19.836Z,99884.73
2018-03-06T05:06:49.849Z,99887.22
2018-03-06T05:09:19.103Z,99887.22
2018-03-06T05:11:48.440Z,99881.00
2018-03-06T05:14:18.401Z,99886.80
2018-03-06T05:16:48.334Z,99885.13
2018-03-06T05:19:17.985Z,99884.71
2018-03-06T05:21:47.723Z,99881.44
2018-03-06T05:24:17.349Z,99880.63
2018-03-06T05:26:46.766Z,99888.08
2018-03-06T05:29:16.578Z,99885.19
2018-03-06T05:31:46.055Z,99884.36
2018-03-06T05:34:15.993Z,99888.08
2018-03-06T05:36:45.153Z,99884.77
2018-03-06T05:39:15.966Z,99883.94
2018-03-06T05:41:45.115Z,99883.92
2018-03-06T05:44:14.224Z,99888.50
2018-03-06T05:46:43.308Z,99893.43
2018-03-06T05:49:12.898Z,99888.05
2018-03-06T05:51:42.151Z,99882.66
2018-03-06T05:54:12.359Z,99879.74
2018-03-06T05:56:42.360Z,99886.77
2018-03-06T05:59:11.466Z,99886.73
2018-03-06T06:01:41.216Z,99887.95
2018-03-06T06:04:10.355Z,99892.09
2018-03-06T06:06:39.632Z,99892.08
2018-03-06T06:09:10.053Z,99886.27
2018-03-06T06:11:39.442Z,99887.55
2018-03-06T06:14:08.963Z,99893.75
2018-03-06T06:16:38.128Z,99890.02
2018-03-06T06:19:07.511Z,99890.02
2018-03-06T06:21:36.690Z,99888.73
2018-03-06T06:24:06.426Z,99889.55
2018-03-06T06:26:36.590Z,99894.89
2018-03-06T06:29:06.433Z,99893.20
2018-03-06T06:31:36.794Z,99890.62
2018-03-06T06:34:06.489Z,99889.35
2018-03-06T06:36:36.212Z,99891.77
2018-03-06T06:39:05.399Z,99900.38
2018-03-06T06:41:35.713Z,99901.94
2018-03-06T06:44:05.777Z,99908.05
2018-03-06T06:46:34.909Z,99910.74
2018-03-06T06:49:05.466Z,99919.81
2018-03-06T06:51:34.549Z,99913.97
2018-03-06T06:54:03.980Z,99917.67
2018-03-06T06:56:33.229Z,99918.02
2018-03-06T06:59:02.385Z,99914.63
2018-03-06T07:01:31.896Z,99915.84
2018-03-06T07:04:01.132Z,99913.28
2018-03-06T07:06:30.279Z,99914.08
2018-03-06T07:09:00.743Z,99915.67
2018-03-06T07:11:30.060Z,99907.70
2018-03-06T07:13:59.330Z,99902.19
2018-03-06T07:16:29.645Z,99898.41
2018-03-06T07:18:59.560Z,99891.30
2018-03-06T07:21:29.223Z,99892.55
2018-03-06T07:23:58.530Z,99888.77
2018-03-06T07:26:27.622Z,99883.70
2018-03-06T07:28:57.298Z,99880.30
2018-03-06T07:31:26.386Z,99871.43
2018-03-06T07:33:55.570Z,99870.46
2018-03-06T07:36:24.722Z,99867.04
2018-03-06T07:38:53.867Z,99874.05
2018-03-06T07:41:23.550Z,99880.84
2018-03-06T07:43:52.695Z,99871.72
2018-03-06T07:46:21.769Z,99878.77
2018-03-06T07:48:51.418Z,99871.16
2018-03-06T07:51:20.543Z,99869.80
2018-03-06T07:53:49.737Z,99870.44
2018-03-06T07:56:19.381Z,99869.95
2018-03-06T07:58:48.667Z,99869.08
2018-03-06T08:01:17.872Z,99866.11
2018-03-06T08:03:47.257Z,99870.64
2018-03-06T08:06:16.337Z,99871.92
2018-03-06T08:08:45.477Z,99864.70
2018-03-06T08:11:14.555Z,99872.90
2018-03-06T08:13:43.638Z,99871.08
2018-03-06T08:16:13.470Z,99875.47
2018-03-06T08:18:43.029Z,99877.84
2018-03-06T08:21:12.418Z,99879.38
2018-03-06T08:23:41.591Z,99882.06
2018-03-06T08:26:11.266Z,99885.27
2018-03-06T08:28:40.678Z,99882.62
2018-03-06T08:31:10.871Z,99887.42
2018-03-06T08:33:40.727Z,99888.80
2018-03-06T08:36:10.432Z,99884.33
2018-03-06T08:38:39.530Z,99878.35
2018-03-06T08:41:09.301Z,99881.98
2018-03-06T08:43:38.519Z,99874.25
2018-03-06T08:46:07.830Z,99875.12
2018-03-06T08:48:37.006Z,99869.66
2018-03-06T08:51:06.086Z,99874.28
2018-03-06T08:53:36.932Z,99869.34
2018-03-06T08:56:06.751Z,99869.83
2018-03-06T08:58:35.837Z,99868.72
2018-03-06T09:01:04.906Z,99863.29
2018-03-06T09:03:34.763Z,99859.53
2018-03-06T09:06:03.872Z,99868.34
2018-03-06T09:08:32.943Z,99856.41
2018-03-06T09:11:02.417Z,99859.14
2018-03-06T09:13:31.486Z,99861.66
2018-03-06T09:16:00.835Z,99865.88
2018-03-06T09:18:29.906Z,99869.53
2018-03-06T09:20:59.014Z,99869.95
2018-03-06T09:23:28.083Z,99866.66
2018-03-06T09:25:57.265Z,99873.27
2018-03-06T09:28:26.347Z,99865.23
2018-03-06T09:30:55.675Z,99865.17
2018-03-06T09:33:24.823Z,99866.38
2018-03-06T09:35:53.903Z,99873.28
2018-03-06T09:38:23.039Z,99866.95
2018-03-06T09:40:52.467Z,99865.39
2018-03-06T09:43:22.117Z,99866.02
2018-03-06T09:45:51.926Z,99863.72
2018-03-06T09:48:21.491Z,99868.16
2018-03-06T09:50:51.043Z,99864.95
2018-03-06T09:53:20.111Z,99859.30
2018-03-06T09:55:49.794Z,99856.87
2018-03-06T09:58:19.286Z,99859.58
2018-03-06T10:00:48.352Z,99855.83
2018-03-06T10:03:17.422Z,99855.52
2018-03-06T10:05:46.660Z,99852.32
2018-03-06T10:08:15.790Z,99852.09
2018-03-06T10:10:44.897Z,99853.30
2018-03-06T10:13:13.962Z,99840.03
2018-03-06T10:15:43.043Z,99843.83
2018-03-06T10:18:12.114Z,99835.23
2018-03-06T10:20:41.178Z,99842.06
2018-03-06T10:23:10.251Z,99838.61
2018-03-06T10:25:39.314Z,99833.55
2018-03-06T10:28:08.620Z,99829.64
2018-03-06T10:30:38.062Z,99824.36
2018-03-06T10:33:07.227Z,99820.08
2018-03-06T10:35:37.407Z,99820.99
2018-03-06T10:38:06.490Z,99820.41
2018-03-06T10:40:35.992Z,99807.66
2018-03-06T10:43:05.103Z,99809.03
2018-03-06T10:45:34.465Z,99810.45
2018-03-06T10:48:03.602Z,99811.46
2018-03-06T10:50:32.853Z,99809.38
2018-03-06T10:53:01.915Z,99806.12
2018-03-06T10:55:31.387Z,99810.98
2018-03-06T10:58:00.506Z,99811.30
2018-03-06T11:00:35.326Z,99805.21
2018-03-06T11:03:04.409Z,99800.38
2018-03-06T11:05:33.920Z,99804.38
2018-03-06T11:08:02.987Z,99804.07
2018-03-06T11:10:32.125Z,99805.41
2018-03-06T11:13:01.190Z,99806.05
2018-03-06T11:15:30.383Z,99804.00
2018-03-06T11:17:59.522Z,99813.55
2018-03-06T11:20:28.914Z,99810.00
2018-03-06T11:22:57.986Z,99802.38
2018-03-06T11:25:27.283Z,99808.20
2018-03-06T11:27:56.714Z,99805.44
2018-03-06T11:30:25.828Z,99804.15
2018-03-06T11:32:54.979Z,99804.98
2018-03-06T11:35:24.063Z,99806.58
2018-03-06T11:37:53.133Z,99810.20
2018-03-06T11:40:22.615Z,99812.65
2018-03-06T11:42:51.747Z,99805.19
2018-03-06T11:45:20.815Z,99802.36
2018-03-06T11:47:49.875Z,99795.34
2018-03-06T11:50:18.966Z,99797.63
2018-03-06T11:52:48.118Z,99795.63
2018-03-06T11:55:18.198Z,99799.29
2018-03-06T11:57:47.347Z,99798.19
2018-03-06T12:00:16.490Z,99797.59
2018-03-06T12:02:45.554Z,99802.35
2018-03-06T12:05:14.870Z,99797.45
2018-03-06T12:07:43.946Z,99798.00
2018-03-06T12:10:14.032Z,99800.86
2018-03-06T12:12:43.102Z,99801.36
2018-03-06T12:15:12.541Z,99800.03
2018-03-06T12:17:42.044Z,99802.19
2018-03-06T12:20:11.204Z,99797.23
2018-03-06T12:22:40.342Z,99795.55
2018-03-06T12:25:09.462Z,99790.45
2018-03-06T12:27:38.563Z,99787.16
2018-03-06T12:30:07.652Z,99784.15
2018-03-06T12:32:36.759Z,99788.16
2018-03-06T12:35:06.140Z,99777.44
2018-03-06T12:37:35.236Z,99785.27
2018-03-06T12:40:04.303Z,99783.90
2018-03-06T12:42:33.367Z,99785.29
2018-03-06T12:45:02.834Z,99782.64
2018-03-06T12:47:31.903Z,99780.06
2018-03-06T12:50:01.051Z,99772.97
2018-03-06T12:52:30.125Z,99774.55
2018-03-06T12:54:59.244Z,99775.05
2018-03-06T12:57:28.288Z,99770.58
2018-03-06T12:59:57.355Z,99778.37
2018-03-06T13:02:26.674Z,99782.13
2018-03-06T13:04:55.745Z,99786.50
2018-03-06T13:07:24.814Z,99778.83
2018-03-06T13:09:53.942Z,99775.13
2018-03-06T13:12:23.010Z,99781.56
2018-03-06T13:14:52.211Z,99782.49
2018-03-06T13:17:21.382Z,99780.52
2018-03-06T13:19:50.445Z,99781.22
2018-03-06T13:22:19.518Z,99773.07
2018-03-06T13:24:48.598Z,99776.06
2018-03-06T13:27:17.663Z,99768.40
2018-03-06T13:29:46.765Z,99765.92
2018-03-06T13:32:15.834Z,99762.89
2018-03-06T13:34:44.908Z,99764.95
2018-03-06T13:37:14.800Z,99766.95
2018-03-06T13:39:43.869Z,99768.18
2018-03-06T13:42:12.989Z,99764.67
2018-03-06T13:44:42.059Z,99761.25
2018-03-06T13:47:12.026Z,99758.59
2018-03-06T13:49:41.264Z,99762.73
2018-03-06T13:52:13.098Z,99766.13
2018-03-06T13:54:42.386Z,99767.28
2018-03-06T13:57:12.026Z,99759.41
2018-03-06T13:59:41.258Z,99756.67
2018-03-06T14:02:10.756Z,99757.00
2018-03-06T14:04:39.892Z,99752.09
2018-03-06T14:07:08.995Z,99754.61
2018-03-06T14:09:38.550Z,99758.66
2018-03-06T14:12:07.622Z,99758.72
2018-03-06T14:14:36.998Z,99758.06
2018-03-06T14:17:06.111Z,99759.71
2018-03-06T14:19:35.312Z,99750.97
2018-03-06T14:22:04.438Z,99756.09
2018-03-06T14:24:33.535Z,99755.88
2018-03-06T14:27:03.287Z,99756.54
2018-03-06T14:29:32.995Z,99756.20
2018-03-06T14:32:02.168Z,99757.68
2018-03-06T14:34:31.474Z,99752.45
2018-03-06T14:37:00.885Z,99746.45
2018-03-06T14:39:29.960Z,99754.53
2018-03-06T14:41:59.366Z,99755.19
2018-03-06T14:44:28.451Z,99749.73
2018-03-06T14:46:57.523Z,99737.81
2018-03-06T14:49:26.588Z,99737.54
2018-03-06T14:51:55.999Z,99742.72
2018-03-06T14:54:25.973Z,99742.20
2018-03-06T14:56:55.034Z,99741.59
2018-03-06T14:59:24.154Z,99743.80
2018-03-06T15:01:53.228Z,99740.06
2018-03-06T15:04:22.390Z,99745.01
2018-03-06T15:06:51.469Z,99744.56
2018-03-06T15:09:20.544Z,99741.78
2018-03-06T15:11:49.640Z,99736.77
2018-03-06T15:14:18.717Z,99733.91
2018-03-06T15:16:47.787Z,99728.72
2018-03-06T15:19:17.357Z,99723.42
2018-03-06T15:21:46.471Z,99726.55
2018-03-06T15:24:15.544Z,99721.84
2018-03-06T15:26:44.686Z,99725.02
2018-03-06T15:29:13.763Z,99724.02
2018-03-06T15:31:42.889Z,99731.05
2018-03-06T15:34:11.970Z,99728.39
2018-03-06T15:36:41.055Z,99730.94
2018-03-06T15:39:10.459Z,99729.77
2018-03-06T15:41:39.530Z,99728.80
2018-03-06T15:44:08.730Z,99728.86
2018-03-06T15:46:37.815Z,99725.67
2018-03-06T15:49:06.893Z,99724.56
2018-03-06T15:51:35.966Z,99722.55
2018-03-06T15:54:05.035Z,99718.94
2018-03-06T15:56:34.116Z,99722.06
2018-03-06T15:59:03.191Z,99718.73
2018-03-06T16:01:32.307Z,99719.30
2018-03-06T16:04:01.378Z,99717.70
2018-03-06T16:06:30.454Z,99724.02
2018-03-06T16:09:00.226Z,99727.36
2018-03-06T16:11:29.294Z,99722.47
2018-03-06T16:13:58.691Z,99730.59
2018-03-06T16:16:27.847Z,99729.92
2018-03-06T16:18:56.933Z,99723.77
2018-03-06T16:21:27.200Z,99725.22
2018-03-06T16:23:56.267Z,99727.84
2018-03-06T16:26:25.351Z,99729.30
2018-03-06T16:28:54.685Z,99728.23
2018-03-06T16:31:23.878Z,99730.09
2018-03-06T16:33:53.422Z,99724.44
2018-03-06T16:36:23.330Z,99722.56
2018-03-06T16:38:52.469Z,99724.80
2018-03-06T16:41:21.690Z,99725.36
2018-03-06T16:43:50.771Z,99720.09
2018-03-06T16:46:20.206Z,99717.49
2018-03-06T16:48:49.284Z,99716.88
2018-03-06T16:51:18.810Z,99717.92
2018-03-06T16:53:47.965Z,99724.23
2018-03-06T16:56:17.306Z,99719.80
2018-03-06T16:58:46.473Z,99714.89
2018-03-06T17:01:15.595Z,99712.08
2018-03-06T17:03:44.667Z,99712.16
2018-03-06T17:06:14.308Z,99712.21
2018-03-06T17:08:43.861Z,99714.38
2018-03-06T17:11:12.952Z,99714.91
2018-03-06T17:13:42.819Z,99710.39
2018-03-06T17:16:11.922Z,99705.01
2018-03-06T17:18:41.012Z,99711.34
2018-03-06T17:21:10.081Z,99708.54
2018-03-06T17:23:39.152Z,99706.16
2018-03-06T17:26:08.224Z,99708.31
2018-03-06T17:28:37.310Z,99704.22
2018-03-06T17:31:06.388Z,99708.86
2018-03-06T17:33:35.554Z,99713.14
2018-03-06T17:36:04.636Z,99708.30
2018-03-06T17:38:33.710Z,99710.92
2018-03-06T17:41:02.790Z,99715.24
2018-03-06T17:43:31.885Z,99714.94
2018-03-06T17:46:00.973Z,99711.28
2018-03-06T17:48:30.066Z,99707.56
2018-03-06T17:50:59.226Z,99705.15
2018-03-06T17:53:28.387Z,99704.00
2018-03-06T17:55:57.542Z,99698.66
2018-03-06T17:58:26.972Z,99708.77
2018-03-06T18:00:56.134Z,99705.94
2018-03-06T18:03:25.220Z,99701.91
2018-03-06T18:05:54.321Z,99710.46
2018-03-06T18:08:23.428Z,99703.48
2018-03-06T18:10:52.519Z,99709.39
2018-03-06T18:13:21.599Z,99704.84
2018-03-06T18:15:50.915Z,99702.48
2018-03-06T18:18:20.001Z,99700.48
2018-03-06T18:20:49.094Z,99697.67
2018-03-06T18:23:18.190Z,99694.00
2018-03-06T18:25:48.032Z,99694.92
2018-03-06T18:28:17.127Z,99693.67
2018-03-06T18:30:47.111Z,99689.95
2018-03-06T18:33:16.317Z,99688.36
2018-03-06T18:35:45.911Z,99686.27
2018-03-06T18:38:15.211Z,99681.32
2018-03-06T18:40:44.303Z,99681.75
2018-03-06T18:43:13.900Z,99686.69
2018-03-06T18:45:43.298Z,99686.27
2018-03-06T18:48:12.460Z,99684.58
2018-03-06T18:50:53.291Z,99681.65
2018-03-06T18:53:22.463Z,99680.02
2018-03-06T18:55:51.576Z,99676.69
2018-03-06T18:58:20.944Z,99677.56
2018-03-06T19:01:02.727Z,99679.67
2018-03-06T19:03:43.843Z,99683.01
2018-03-06T19:06:23.927Z,99682.59
2018-03-06T19:08:53.079Z,99678.94
2018-03-06T19:11:22.812Z,99674.84
2018-03-06T19:13:51.877Z,99676.52
2018-03-06T19:16:21.025Z,99675.70
2018-03-06T19:18:51.149Z,99674.50
2018-03-06T19:21:20.900Z,99677.86
2018-03-06T19:23:51.476Z,99676.68
2018-03-06T19:26:20.576Z,99678.36
2018-03-06T19:28:49.664Z,99672.54
2018-03-06T19:31:18.753Z,99673.79
2018-03-06T19:33:48.382Z,99674.59
2018-03-06T19:36:17.800Z,99678.75
2018-03-06T19:38:46.899Z,99680.87
2018-03-06T19:41:16.211Z,99675.52
2018-03-06T19:43:45.609Z,99679.30
2018-03-06T19:46:14.960Z,99678.06
2018-03-06T19:48:44.083Z,99673.96
2018-03-06T19:51:13.175Z,99678.61
2018-03-06T19:53:42.372Z,99679.45
2018-03-06T19:56:12.123Z,99675.28
2018-03-06T19:58:41.346Z,99670.38
2018-03-06T20:01:10.536Z,99665.52
2018-03-06T20:03:39.752Z,99670.15
2018-03-06T20:06:08.897Z,99654.39
2018-03-06T20:08:38.334Z,99659.40
2018-03-06T20:11:07.439Z,99658.61
2018-03-06T20:13:36.655Z,99654.88
2018-03-06T20:16:05.785Z,99657.44
2018-03-06T20:21:10.130Z,99654.19
2018-03-06T20:23:40.377Z,99648.77
2018-03-06T20:26:10.851Z,99646.70
2018-03-06T20:28:39.958Z,99644.19
2018-03-06T20:31:14.582Z,99651.23
2018-03-06T20:33:43.737Z,99647.89
2018-03-06T20:36:12.855Z,99647.52
2018-03-06T20:38:47.675Z,99648.45
2018-03-06T20:41:16.798Z,99645.14
2018-03-06T20:43:45.900Z,99649.73
2018-03-06T20:46:20.528Z,99645.64
2018-03-06T20:48:49.654Z,99647.73
2018-03-06T20:51:18.731Z,99640.23
2018-03-06T20:53:53.350Z,99639.78
2018-03-06T20:56:22.461Z,99641.95
2018-03-06T20:58:51.555Z,99633.31
2018-03-06T21:01:21.589Z,99633.77
2018-03-06T21:03:50.688Z,99635.41
2018-03-06T21:06:19.762Z,99641.23
2018-03-06T21:08:49.134Z,99634.98
2018-03-06T21:11:18.419Z,99633.31
2018-03-06T21:13:47.574Z,99627.91
2018-03-06T21:16:16.614Z,99627.47
2018-03-06T21:18:45.686Z,99629.14
2018-03-06T21:21:14.755Z,99635.39
2018-03-06T21:23:44.158Z,99632.91
2018-03-06T21:26:13.519Z,99635.81
2018-03-06T21:28:42.634Z,99637.55
2018-03-06T21:31:11.708Z,99633.46
2018-03-06T21:33:40.815Z,99626.87
2018-03-06T21:36:09.966Z,99637.22
2018-03-06T21:38:39.048Z,99635.97
2018-03-06T21:41:08.165Z,99630.56
2018-03-06T21:43:37.251Z,99627.28
2018-03-06T21:46:06.337Z,99624.81
2018-03-06T21:48:35.433Z,99624.48
2018-03-06T21:51:05.534Z,99620.33
2018-03-06T21:53:34.741Z,99620.40
2018-03-06T21:56:03.873Z,99611.73
2018-03-06T21:58:32.956Z,99618.45
2018-03-06T22:01:02.161Z,99610.95
2018-03-06T22:03:31.285Z,99616.80
2018-03-06T22:06:00.356Z,99615.97
2018-03-06T22:08:29.451Z,99608.06
2018-03-06T22:10:58.544Z,99610.56
2018-03-06T22:13:27.618Z,99612.66
2018-03-06T22:15:56.687Z,99606.41
2018-03-06T22:18:25.763Z,99605.65
2018-03-06T22:20:54.840Z,99602.82
2018-03-06T22:23:23.928Z,99603.66
2018-03-06T22:25:52.999Z,99604.89
2018-03-06T22:28:22.095Z,99603.22
2018-03-06T22:30:51.203Z,99598.98
2018-03-06T22:33:20.322Z,99607.30
2018-03-06T22:35:49.398Z,99605.64
2018-03-06T22:38:18.466Z,99611.87
2018-03-06T22:40:47.547Z,99604.40
2018-03-06T22:43:16.635Z,99606.04
2018-03-06T22:45:46.216Z,99601.83
2018-03-06T22:48:15.496Z,99600.58
2018-03-06T22:50:44.790Z,99603.89
2018-03-06T22:53:14.695Z,99598.45
2018-03-06T22:55:44.069Z,99602.22
2018-03-06T22:58:13.545Z,99605.98
2018-03-06T23:00:42.786Z,99606.46
2018-03-06T23:03:11.859Z,99608.56
2018-03-06T23:05:41.155Z,99604.89
2018-03-06T23:08:11.824Z,99599.48
2018-03-06T23:10:40.898Z,99599.47
2018-03-06T23:13:10.236Z,99605.71
2018-03-06T23:15:41.010Z,99608.61
2018-03-06T23:18:10.670Z,99614.44
2018-03-06T23:20:39.970Z,99613.16
2018-03-06T23:23:09.667Z,99607.30
2018-03-06T23:25:39.407Z,99606.04
2018-03-06T23:28:09.006Z,99610.63
2018-03-06T23:30:38.729Z,99608.50
2018-03-06T23:33:07.797Z,99608.14
2018-03-06T23:35:37.494Z,99613.55
2018-03-06T23:38:07.356Z,99613.23
2018-03-06T23:40:37.248Z,99613.66
2018-03-06T23:43:06.674Z,99610.37
2018-03-06T23:45:37.529Z,99610.37
2018-03-06T23:48:06.712Z,99611.22
2018-03-06T23:50:35.782Z,99612.88
2018-03-06T23:53:09.090Z,99614.26
2018-03-06T23:55:39.660Z,99612.22
2018-03-06T23:58:09.175Z,99613.95
